Time,TemperatureF,DewpointF,PressureIn,WindDirection,WindDirectionDegrees,WindSpeedMPH,WindSpeedGustMPH,Humidity,HourlyPrecipIn,Conditions,Clouds,dailyrainin,SoftwareType,DateUTC
2013-06-15 00:00:00,59.9,38.5,29.69,ESE,112,2.0,7.0,45,0.00,,CLR,0.00,VWS V14.01,2013-06-15 06:00:00,
2013-06-15 00:30:00,57.5,38.0,29.70,East,90,1.0,5.0,48,0.00,,CLR,0.00,VWS V14.01,2013-06-15 06:30:00,
2013-06-15 01:00:00,57.7,39.2,29.70,ESE,112,3.0,7.0,50,0.00,,CLR,0.00,VWS V14.01,2013-06-15 07:00:00,
2013-06-15 01:30:00,55.6,39.2,29.70,ESE,112,1.0,8.0,54,0.00,,CLR,0.00,VWS V14.01,2013-06-15 07:30:00,
2013-06-15 02:00:00,55.8,38.9,29.69,ESE,112,3.0,6.0,53,0.00,,CLR,0.00,VWS V14.01,2013-06-15 08:00:00,
2013-06-15 02:30:00,54.5,39.1,29.71,ESE,112,0.0,2.0,56,0.00,,CLR,0.00,VWS V14.01,2013-06-15 08:30:00,
2013-06-15 03:00:00,53.0,39.1,29.72,ESE,112,1.0,3.0,59,0.00,,CLR,0.00,VWS V14.01,2013-06-15 09:00:00,
2013-06-15 03:30:00,52.9,39.4,29.72,ESE,112,1.0,3.0,60,0.00,,CLR,0.00,VWS V14.01,2013-06-15 09:30:00,
2013-06-15 04:00:00,53.3,39.3,29.71,ESE,112,2.0,5.0,59,0.00,,CLR,0.00,VWS V14.01,2013-06-15 10:00:00,
2013-06-15 04:30:00,53.2,39.7,29.71,East,90,1.0,3.0,60,0.00,,CLR,0.00,VWS V14.01,2013-06-15 10:30:00,
2013-06-15 05:00:00,51.0,39.3,29.72,East,90,1.0,3.0,64,0.00,,CLR,0.00,VWS V14.01,2013-06-15 11:00:00,
2013-06-15 05:30:00,51.6,39.8,29.74,ESE,112,1.0,3.0,64,0.00,,CLR,0.00,VWS V14.01,2013-06-15 11:30:00,
2013-06-15 06:00:00,50.8,39.9,29.75,SW,225,1.0,4.0,66,0.00,,CLR,0.00,VWS V14.01,2013-06-15 12:00:00,
2013-06-15 06:30:00,54.0,40.9,29.75,East,90,1.0,4.0,61,0.00,,CLR,0.00,VWS V14.01,2013-06-15 12:30:00,
2013-06-15 07:00:00,57.8,41.3,29.76,ESE,112,0.0,3.0,54,0.00,,CLR,0.00,VWS V14.01,2013-06-15 13:00:00,
2013-06-15 07:30:00,58.7,42.1,29.77,West,270,0.0,2.0,54,0.00,,CLR,0.00,VWS V14.01,2013-06-15 13:30:00,
2013-06-15 08:00:00,64.7,44.0,29.77,WNW,292,0.0,1.0,47,0.00,,CLR,0.00,VWS V14.01,2013-06-15 14:00:00,
2013-06-15 08:30:00,66.1,43.6,29.77,NNW,338,0.0,3.0,44,0.00,,CLR,0.00,VWS V14.01,2013-06-15 14:30:00,
2013-06-15 09:00:00,67.3,43.5,29.77,NNW,338,1.0,4.0,42,0.00,,CLR,0.00,VWS V14.01,2013-06-15 15:00:00,
2013-06-15 09:30:00,70.1,43.3,29.76,NNW,338,1.0,3.0,38,0.00,,CLR,0.00,VWS V14.01,2013-06-15 15:30:00,
2013-06-15 10:00:00,73.1,43.8,29.75,NW,315,1.0,5.0,35,0.00,,CLR,0.00,VWS V14.01,2013-06-15 16:00:00,
2013-06-15 10:30:00,74.9,40.5,29.75,NW,315,2.0,6.0,29,0.00,,CLR,0.00,VWS V14.01,2013-06-15 16:30:00,
2013-06-15 11:00:00,76.3,38.9,29.75,WNW,292,2.0,8.0,26,0.00,,CLR,0.00,VWS V14.01,2013-06-15 17:00:00,
2013-06-15 11:30:00,79.2,34.7,29.74,WNW,292,3.0,11.0,20,0.00,,CLR,0.00,VWS V14.01,2013-06-15 17:30:00,
2013-06-15 12:00:00,80.4,30.1,29.74,WNW,292,6.0,17.0,16,0.00,,CLR,0.00,VWS V14.01,2013-06-15 18:00:00,
2013-06-15 12:30:00,81.5,27.8,29.73,WSW,248,8.0,19.0,14,0.00,,CLR,0.00,VWS V14.01,2013-06-15 18:30:00,
2013-06-15 13:00:00,81.9,26.3,29.72,WSW,248,9.0,24.0,13,0.00,,CLR,0.00,VWS V14.01,2013-06-15 19:00:00,
2013-06-15 13:30:00,83.7,27.7,29.72,West,270,10.0,22.0,13,0.00,,CLR,0.00,VWS V14.01,2013-06-15 19:30:00,
2013-06-15 14:00:00,81.2,30.8,29.71,WNW,292,7.0,23.0,16,0.00,,CLR,0.00,VWS V14.01,2013-06-15 20:00:00,
2013-06-15 14:30:00,82.3,30.1,29.69,NW,315,3.0,13.0,15,0.00,,CLR,0.00,VWS V14.01,2013-06-15 20:30:00,
2013-06-15 15:00:00,79.8,28.1,29.69,West,270,4.0,12.0,15,0.00,,CLR,0.00,VWS V14.01,2013-06-15 21:00:00,
2013-06-15 15:30:00,84.6,24.4,29.67,West,270,6.0,19.0,11,0.00,,CLR,0.00,VWS V14.01,2013-06-15 21:30:00,
2013-06-15 16:00:00,85.0,19.9,29.66,WSW,248,10.0,20.0,9,0.00,,CLR,0.00,VWS V14.01,2013-06-15 22:00:00,
2013-06-15 16:30:00,85.4,14.4,29.64,West,270,8.0,19.0,7,0.00,,CLR,0.00,VWS V14.01,2013-06-15 22:30:00,
2013-06-15 17:00:00,85.2,14.3,29.64,West,270,10.0,24.0,7,0.00,,CLR,0.00,VWS V14.01,2013-06-15 23:00:00,
2013-06-15 17:30:00,85.3,14.3,29.62,West,270,10.0,21.0,7,0.00,,CLR,0.00,VWS V14.01,2013-06-15 23:30:00,
2013-06-15 18:00:00,84.4,16.7,29.61,West,270,11.0,21.0,8,0.00,,CLR,0.00,VWS V14.01,2013-06-16 00:00:00,
2013-06-15 18:30:00,82.8,18.3,29.61,West,270,11.0,21.0,9,0.00,,CLR,0.00,VWS V14.01,2013-06-16 00:30:00,
2013-06-15 19:00:00,82.5,18.0,29.62,West,270,8.0,16.0,9,0.00,,CLR,0.00,VWS V14.01,2013-06-16 01:00:00,
2013-06-15 19:30:00,79.1,20.1,29.63,West,270,7.0,17.0,11,0.00,,CLR,0.00,VWS V14.01,2013-06-16 01:30:00,
2013-06-15 20:00:00,77.0,20.5,29.64,WSW,248,3.0,8.0,12,0.00,,CLR,0.00,VWS V14.01,2013-06-16 02:00:00,
2013-06-15 20:30:00,75.5,26.2,29.68,West,270,8.0,17.0,16,0.00,,CLR,0.00,VWS V14.01,2013-06-16 02:30:00,
2013-06-15 21:00:00,73.0,29.6,29.73,West,270,9.0,21.0,20,0.00,,CLR,0.00,VWS V14.01,2013-06-16 03:00:00,
2013-06-15 21:30:00,71.3,29.4,29.75,West,270,7.0,16.0,21,0.00,,CLR,0.00,VWS V14.01,2013-06-16 03:30:00,
2013-06-15 22:00:00,70.1,29.5,29.76,West,270,3.0,10.0,22,0.00,,CLR,0.00,VWS V14.01,2013-06-16 04:00:00,
2013-06-15 22:30:00,68.3,31.1,29.76,NNW,338,0.0,8.0,25,0.00,,CLR,0.00,VWS V14.01,2013-06-16 04:30:00,
2013-06-15 23:00:00,66.2,31.3,29.78,SW,225,3.0,7.0,27,0.00,,CLR,0.00,VWS V14.01,2013-06-16 05:00:00,
2013-06-15 23:30:00,65.0,31.1,29.80,SW,225,2.0,7.0,28,0.00,,CLR,0.00,VWS V14.01,2013-06-16 05:30:00,